Flight OLY944

  • Submitted By: Stavros Sarikas
  • Departure Airport: Eleftherios Venizelos International Airport (LGAV)
  • Arrival Airport: Dimokritos Airport (LGAL)
  • Aircraft: A320-200 (SX-OAH)
  • Flight Time: 00.59
  • Date Submitted: 08/12/2017
  • Route: NEVRA UG33 LMO
  • Status: Accepted
Flight Details
Gross Revenue:
(138 load / € 55.00 per unit
€ 7, 590.00
Fuel Cost:
(2267 fuel used @ 0.19 / unit)
€ 430.73

Additional Log Information:

View Log

Aircraft Used in flight is Airbus A320 British Airways G-EUUU
17:07 Boarding
17:07 Navigation Lights ON at 320 Feet
17:07 Beacon Lights ON at 320 Feet
17:07 Brakes are On
17:11 Engine 2 Started
17:12 Engine 1 Started
17:13 Brakes are Released
17:13 Pushing back
17:14 Flaps 3 Selected at 320ft and 0kts
17:14 Taxi Lights ON at 320 Feet
17:15 Landing Lights ON at 320 AGL
17:15 Strobe Lights ON at 320 Feet
17:17 You Took off @ 142 Knots and Flaps at Position 3 With a heading of 217 Degrees
Departure Weather LGAV 081450Z 20004KT 9999 FEW040 14/07 Q1022 NOSIG
Departure Coordinates 37.9346541016128/ 23.9313663233113
Takeoff Weight=59697KG Fuel Weight=4854KG
17:17 Paused
17:17 Landing Gear Up @ 144 Knots and 390 Feet
17:17 Taxi Lights OFF at 540 Feet
17:17 Unpaused
17:18 Flaps 2 Selected at 1610ft and 144kts
17:18 Flaps 0 Selected at 1880ft and 184kts
17:21 Above FL100 you need to switch of the landing lights
17:21 Landing Lights OFF at 10330 AGL
17:22 You exceeded maximum bank angle
17:26 TOC Reached
17:54 Landing Lights ON at 9810 AGL
17:56 Below 10000 feet you are not allowed to go over 250 knots
17:59 Flaps 1 Selected at 1990ft and 196kts
18:00 Flaps 3 Selected at 1980ft and 193kts
18:00 Landing Gear Down @ 186 Knots and 1970 Feet
18:00 Flaps 4 Selected at 1920ft and 166kts
18:00 Taxi Lights ON at 1890 Feet
18:00 Flaps 5 Selected at 1860ft and 159kts
18:04 You Landed @ 130 Knots with -100 Vertical Speed With a heading of 255 and with 1.3024 G Force
Arrival Weather: LGAL 081550Z 27005KT 9999 FEW018 11/08 Q1020
Arrival Coordinates 40.8590228414295/ 25.9665227138023
Landing Weight=57674KG Fuel Weight=2830KG
18:04 Taxiing to gate
18:04 Paused
18:05 Landing Lights OFF at 40 AGL
18:05 Strobe Lights OFF at 40 Feet
18:05 Flaps 0 Selected at 40ft and 30kts
18:05 Brakes are On
18:06 Engine 1 Stopped
18:06 Engine 2 Stopped
18:06 Unpaused
Pirep logged with OA Virtual Tracking 1.0.2.6

Route Map